Nearby METAR Reports

 

KFRG - , , USA
Distance from station: SSW 12mi, 20km
Updated: 12/16/2017 8:53pm
Overcast
Overcast
 Wind from NNW
Wind: NNW 7 mph , 11 km/h
Temperature: 36°F , 2°C
Wind Chill: 30°F , -1°C
Dew Point: 27°F , -3°C
Humidity: 70%
Barometer: 30.15 inHg , 1021 hPa
Clouds: Overcast
Visibility: 10 miles , 16 km
Cloud details: Overcast 3700 ft
2017/12/17 01:53 KFRG 170153Z 34006KT 10SM OVC037 02/M03 A3015 RMK AO2 SLP211 T00221033
KISP - , , USA
Distance from station: ESE 14mi, 23km
Updated: 12/16/2017 8:56pm
Overcast
Overcast
 Wind from NW
Wind: NW 9 mph , 15 km/h
Temperature: 36°F , 2°C
Wind Chill: 29°F , -2°C
Dew Point: 27°F , -3°C
Humidity: 70%
Barometer: 30.14 inHg , 1020.7 hPa
Clouds: Overcast
Visibility: 10 miles , 16 km
Cloud details: Overcast 3500 ft
2017/12/17 01:56 KISP 170156Z 31008KT 10SM OVC035 02/M03 A3014 RMK AO2 SLP207 T00221028
 
KBDR - , , USA
Distance from station: NNE 21mi, 34km
Updated: 12/16/2017 8:52pm
Overcast
Overcast
 Wind from NW
Wind: NW 6 mph , 9 km/h
Temperature: 34°F , 1°C
Wind Chill: 29°F , -2°C
Dew Point: 25°F , -4°C
Humidity: 70%
Barometer: 30.15 inHg , 1021 hPa
Clouds: Overcast
Visibility: 10 miles , 16 km
Cloud details: Overcast 5500 ft
2017/12/17 01:52 KBDR 170152Z 31005KT 10SM OVC055 01/M04 A3015 RMK AO2 SLP210 T00111044
KHPN - , , USA
Distance from station: WNW 22mi, 35km
Updated: 12/16/2017 8:56pm
Overcast
Overcast
 Wind from NW
Wind: NW 13 mph , 20 km/h
Temperature: 34°F , 1°C
Wind Chill: 25°F , -4°C
Dew Point: 23°F , -5°C
Humidity: 65%
Barometer: 30.13 inHg , 1020.3 hPa
Clouds: Overcast
Visibility: 10 miles , 16 km
Cloud details: Overcast 4000 ft
2017/12/17 01:56 KHPN 170156Z 31011KT 10SM OVC040 01/M05 A3013 RMK AO2 SLP212 T00061050
 
KHWV - , , USA
Distance from station: ESE 26mi, 41km
Updated: 12/16/2017 8:56pm
Overcast
Overcast
 Wind from NW
Wind: NW 9 mph , 15 km/h
Temperature: 36°F , 2°C
Wind Chill: 29°F , -2°C
Dew Point: 27°F , -3°C
Humidity: 70%
Barometer: 30.15 inHg , 1021 hPa
Clouds: Overcast
Visibility: 10 miles , 16 km
Cloud details: Overcast 4000 ft
2017/12/17 01:56 KHWV 170156Z AUTO 31008KT 10SM OVC040 02/M03 A3015 RMK AO2 SLP210 T00221028
KJFK - , , USA
Distance from station: SW 29mi, 46km
Updated: 12/16/2017 8:51pm
Overcast
Overcast
 Wind from NNW
Wind: NNW 13 mph , 20 km/h
Temperature: 37°F , 3°C
Wind Chill: 29°F , -2°C
Dew Point: 27°F , -3°C
Humidity: 65%
Barometer: 30.16 inHg , 1021.3 hPa
Clouds: Overcast
Visibility: 10 miles , 16 km
Cloud details: Mostly cloudy 6000 ft
Overcast 8000 ft
2017/12/17 01:51 KJFK 170151Z 34011KT 10SM BKN060 OVC080 03/M03 A3016 RMK AO2 SLP213 T00281028
 
KLGA - , , USA
Distance from station: WSW 29mi, 47km
Updated: 12/16/2017 8:51pm
Overcast
Overcast
 Wind from NW
Wind: NW 10 mph , 17 km/h
Temperature: 37°F , 3°C
Wind Chill: 30°F , -1°C
Dew Point: 27°F , -3°C
Humidity: 65%
Barometer: 30.15 inHg , 1021 hPa
Clouds: Overcast
Visibility: 10 miles , 16 km
Cloud details: Overcast 3500 ft
2017/12/17 01:51 KLGA 170151Z 31009KT 10SM OVC035 03/M03 A3015 RMK AO2 SLP211 T00331033 $